Time;durP1;ratioP1;P1;durP2;ratioP2;P2;SDS_P1;SDS_P2;PMS_P1;PMS_P2;Temp;Humidity;BMP_temperature;BMP_pressure;BME280_temperature;BME280_humidity;BME280_pressure;Samples;Min_cycle;Max_cycle;Signal;HPM_P1;HPM_P2
2022/11/27 00:01:55;;;;;;;32.10;22.23;;;4.20;99.90;;;;;;5003447;28;20534;-80
2022/11/27 00:04:21;;;;;;;29.90;23.00;;;4.20;99.90;;;;;;4991626;28;20057;-79
2022/11/27 00:06:48;;;;;;;35.22;23.13;;;4.20;99.90;;;;;;5002907;28;20037;-79
2022/11/27 00:09:16;;;;;;;29.25;22.65;;;4.20;99.90;;;;;;5005302;28;20037;-77
2022/11/27 00:11:43;;;;;;;42.53;23.13;;;4.20;99.90;;;;;;5015605;28;20064;-77
2022/11/27 00:14:12;;;;;;;35.95;23.05;;;4.20;99.90;;;;;;4996476;28;20049;-78
2022/11/27 00:16:39;;;;;;;34.75;22.92;;;4.20;99.90;;;;;;5006328;28;20051;-77
2022/11/27 00:19:07;;;;;;;29.40;20.83;;;4.20;99.90;;;;;;5003904;28;20085;-78
2022/11/27 00:21:34;;;;;;;27.25;22.35;;;4.20;99.90;;;;;;5004212;28;20053;-78
2022/11/27 00:24:04;;;;;;;34.55;23.42;;;4.20;99.90;;;;;;5011255;28;20379;-77
2022/11/27 00:26:31;;;;;;;34.42;23.40;;;4.20;99.90;;;;;;5023085;28;20041;-78
2022/11/27 00:29:03;;;;;;;36.10;24.85;;;4.20;99.90;;;;;;4999581;28;20123;-77
2022/11/27 00:31:31;;;;;;;36.92;24.33;;;4.20;99.90;;;;;;5002662;28;20029;-78
2022/11/27 00:34:01;;;;;;;36.42;24.20;;;4.20;99.90;;;;;;5014203;28;20041;-77
2022/11/27 00:36:32;;;;;;;43.90;25.58;;;4.20;99.90;;;;;;5002234;28;20055;-77
2022/11/27 00:38:59;;;;;;;44.40;23.48;;;4.20;99.90;;;;;;4995186;28;20054;-78
2022/11/27 00:41:28;;;;;;;37.05;23.35;;;4.10;99.90;;;;;;5000934;28;20128;-77
2022/11/27 00:43:55;;;;;;;36.75;25.27;;;4.10;99.90;;;;;;5003662;28;20069;-78
2022/11/27 00:46:27;;;;;;;37.88;25.08;;;4.10;99.90;;;;;;4984679;28;20042;-77
2022/11/27 00:49:00;;;;;;;36.58;24.75;;;4.10;99.90;;;;;;5006147;28;20041;-78
2022/11/27 00:51:28;;;;;;;39.58;27.15;;;4.20;99.90;;;;;;5016160;28;20057;-77
2022/11/27 00:53:55;;;;;;;34.60;23.77;;;4.20;99.90;;;;;;5002207;28;20072;-77
2022/11/27 00:56:35;;;;;;;39.42;25.08;;;4.20;99.90;;;;;;5001925;28;20034;-79
2022/11/27 00:59:02;;;;;;;43.03;26.15;;;4.20;99.90;;;;;;5003825;28;20049;-78
2022/11/27 01:01:32;;;;;;;38.25;25.85;;;4.20;99.90;;;;;;4983232;28;20521;-77
2022/11/27 01:04:00;;;;;;;37.40;26.27;;;4.20;99.90;;;;;;5002454;28;20149;-77
2022/11/27 01:06:28;;;;;;;41.67;26.40;;;4.10;99.90;;;;;;5001162;28;20041;-78
2022/11/27 01:08:56;;;;;;;36.35;26.05;;;4.10;99.90;;;;;;4985804;28;20052;-78
2022/11/27 01:11:26;;;;;;;36.85;27.40;;;4.10;99.90;;;;;;4996344;28;20038;-78
2022/11/27 01:13:57;;;;;;;39.70;26.23;;;4.10;99.90;;;;;;5001811;28;20041;-79
2022/11/27 01:16:25;;;;;;;30.92;23.27;;;4.10;99.90;;;;;;4982935;28;20522;-79
2022/11/27 01:18:56;;;;;;;38.10;25.27;;;4.10;99.90;;;;;;5018019;28;20049;-78
2022/11/27 01:21:25;;;;;;;39.90;25.60;;;4.10;99.90;;;;;;4996259;28;20136;-78
2022/11/27 01:23:53;;;;;;;39.08;24.98;;;4.00;99.90;;;;;;4988815;28;20132;-79
2022/11/27 01:26:22;;;;;;;40.72;26.60;;;4.00;99.90;;;;;;4996944;28;20049;-77
2022/11/27 01:28:54;;;;;;;36.30;27.23;;;3.90;99.90;;;;;;4998554;28;20036;-80
2022/11/27 01:31:27;;;;;;;42.42;26.70;;;3.90;99.90;;;;;;5008438;28;20049;-80
2022/11/27 01:33:56;;;;;;;40.30;27.27;;;3.90;99.90;;;;;;5006012;28;20037;-77
2022/11/27 01:36:24;;;;;;;43.78;26.98;;;3.90;99.90;;;;;;5017683;28;20045;-81
2022/11/27 01:38:51;;;;;;;35.53;24.95;;;3.90;99.90;;;;;;5003200;28;20170;-77
2022/11/27 01:41:19;;;;;;;36.75;26.23;;;3.90;99.90;;;;;;5014391;28;20064;-78
2022/11/27 01:43:56;;;;;;;45.60;28.77;;;3.90;99.90;;;;;;5018034;28;20049;-78
2022/11/27 01:46:31;;;;;;;41.47;27.98;;;3.90;99.90;;;;;;5016516;28;20092;-79
2022/11/27 01:49:14;;;;;;;37.00;26.50;;;3.90;99.90;;;;;;5000943;28;20045;-79
2022/11/27 01:51:50;;;;;;;36.85;26.48;;;3.80;99.90;;;;;;5012690;28;20203;-80
2022/11/27 01:54:20;;;;;;;35.47;24.60;;;3.90;99.90;;;;;;5002757;28;20142;-77
2022/11/27 01:56:50;;;;;;;34.00;24.77;;;3.90;99.90;;;;;;5002358;28;20044;-79
2022/11/27 01:59:18;;;;;;;38.35;25.65;;;3.90;99.90;;;;;;4998038;28;20044;-79
2022/11/27 02:01:44;;;;;;;47.28;27.38;;;4.00;99.90;;;;;;5003072;28;20050;-78
2022/11/27 02:04:11;;;;;;;35.53;24.27;;;4.00;99.90;;;;;;5002354;28;20057;-79
2022/11/27 02:06:38;;;;;;;35.63;25.95;;;4.00;99.90;;;;;;4993682;28;20141;-79
2022/11/27 02:09:05;;;;;;;33.70;26.45;;;4.00;99.90;;;;;;5014541;28;20052;-79
2022/11/27 02:11:53;;;;;;;37.17;25.33;;;4.00;99.90;;;;;;4999552;28;20063;-80
2022/11/27 02:14:28;;;;;;;38.65;27.30;;;4.00;99.90;;;;;;5003667;28;20041;-78
2022/11/27 02:17:39;;;;;;;36.20;26.10;;;3.90;99.90;;;;;;5000758;28;20070;-78
2022/11/27 02:20:20;;;;;;;42.03;27.52;;;3.90;99.90;;;;;;4936395;28;20066;-79
2022/11/27 02:22:59;;;;;;;37.58;26.33;;;3.80;99.90;;;;;;4993677;28;20524;-78
2022/11/27 02:25:46;;;;;;;39.30;26.65;;;3.90;99.90;;;;;;5005323;28;20045;-78
2022/11/27 02:28:23;;;;;;;43.92;26.20;;;3.90;99.90;;;;;;5002079;28;20053;-78
2022/11/27 02:30:59;;;;;;;42.70;27.02;;;3.90;99.90;;;;;;4997447;28;20056;-77
2022/11/27 02:33:28;;;;;;;38.95;26.45;;;3.90;99.90;;;;;;5003026;28;20136;-76
2022/11/27 02:36:10;;;;;;;43.45;27.08;;;3.80;99.90;;;;;;4999613;28;20041;-75
2022/11/27 02:38:58;;;;;;;45.75;26.80;;;3.80;99.90;;;;;;5001364;28;20186;-77
2022/11/27 02:41:29;;;;;;;40.28;26.63;;;3.80;99.90;;;;;;4981091;28;20180;-76
2022/11/27 02:43:59;;;;;;;42.55;28.10;;;3.80;99.90;;;;;;4998515;28;20056;-79
2022/11/27 02:46:27;;;;;;;41.53;27.85;;;3.80;99.90;;;;;;5008345;28;20687;-76
2022/11/27 02:49:02;;;;;;;49.17;28.73;;;3.80;99.90;;;;;;5002753;28;20084;-74
2022/11/27 02:51:36;;;;;;;44.00;27.73;;;3.70;99.90;;;;;;4997587;28;20052;-76
2022/11/27 02:54:06;;;;;;;48.22;29.00;;;3.70;99.90;;;;;;5000339;28;20045;-75
2022/11/27 02:56:33;;;;;;;48.50;28.80;;;3.80;99.90;;;;;;5001705;28;20038;-75
2022/11/27 02:59:05;;;;;;;49.50;31.38;;;3.80;99.90;;;;;;5013809;28;20051;-74
2022/11/27 03:01:38;;;;;;;48.72;28.58;;;3.80;99.90;;;;;;5005641;28;20100;-75
2022/11/27 03:04:11;;;;;;;45.67;28.00;;;3.80;99.90;;;;;;5017081;28;20557;-76
2022/11/27 03:06:43;;;;;;;46.78;29.88;;;3.80;99.90;;;;;;5006658;28;20038;-79
2022/11/27 03:09:16;;;;;;;49.25;29.13;;;3.80;99.90;;;;;;5008196;28;20669;-76
2022/11/27 03:11:44;;;;;;;54.53;30.25;;;3.80;99.90;;;;;;5004604;28;20513;-76
2022/11/27 03:14:12;;;;;;;49.67;29.58;;;3.70;99.90;;;;;;4989335;28;20538;-76
2022/11/27 03:17:00;;;;;;;57.85;33.00;;;3.70;99.90;;;;;;5026439;28;20109;-77
2022/11/27 03:19:33;;;;;;;50.65;30.60;;;3.80;99.90;;;;;;5002935;28;20142;-75
2022/11/27 03:22:01;;;;;;;59.85;32.50;;;3.70;99.90;;;;;;5036176;28;20049;-77
2022/11/27 03:24:31;;;;;;;57.35;31.63;;;3.70;99.90;;;;;;5026354;28;20050;-78
2022/11/27 03:26:58;;;;;;;51.30;31.63;;;3.60;99.90;;;;;;5006495;28;20483;-76
2022/11/27 03:29:35;;;;;;;51.13;29.42;;;3.60;99.90;;;;;;5006314;28;20045;-75
2022/11/27 03:32:03;;;;;;;54.97;31.48;;;3.60;99.90;;;;;;5007958;28;20061;-76
2022/11/27 03:34:31;;;;;;;62.25;31.00;;;3.60;99.90;;;;;;5021178;28;20045;-76
2022/11/27 03:36:58;;;;;;;60.85;30.52;;;3.60;99.90;;;;;;5002674;28;20038;-77
2022/11/27 03:39:25;;;;;;;47.90;29.85;;;3.50;99.90;;;;;;5021095;28;20065;-77
2022/11/27 03:42:33;;;;;;;49.70;28.50;;;3.50;99.90;;;;;;5011270;28;20591;-77
2022/11/27 03:45:23;;;;;;;46.83;26.35;;;3.50;99.90;;;;;;5022107;28;20080;-75
2022/11/27 03:48:18;;;;;;;50.63;29.55;;;3.40;99.90;;;;;;5010142;28;20041;-77
2022/11/27 03:51:06;;;;;;;52.90;28.03;;;3.40;99.90;;;;;;5030003;28;20057;-75
2022/11/27 03:53:39;;;;;;;48.60;27.23;;;3.40;99.90;;;;;;5005014;28;20046;-76
2022/11/27 03:56:26;;;;;;;45.33;27.92;;;3.40;99.90;;;;;;5020422;28;20091;-75
2022/11/27 03:59:03;;;;;;;48.10;29.65;;;3.40;99.90;;;;;;4989708;28;20055;-76
2022/11/27 04:01:30;;;;;;;44.45;28.50;;;3.40;99.90;;;;;;5002715;28;20076;-75
2022/11/27 04:03:57;;;;;;;48.25;27.98;;;3.40;99.90;;;;;;4991461;28;20079;-77
2022/11/27 04:06:24;;;;;;;40.85;27.98;;;3.40;99.90;;;;;;5013588;28;20048;-76
2022/11/27 04:08:50;;;;;;;45.38;28.13;;;3.40;99.90;;;;;;5006037;28;20382;-76
2022/11/27 04:11:17;;;;;;;49.80;27.95;;;3.40;99.90;;;;;;5004263;28;20052;-76
2022/11/27 04:13:44;;;;;;;43.80;26.80;;;3.40;99.90;;;;;;5017087;28;20110;-75
2022/11/27 04:16:11;;;;;;;45.40;26.13;;;3.30;99.90;;;;;;5007108;28;20470;-75
2022/11/27 04:18:38;;;;;;;33.63;23.85;;;3.30;99.90;;;;;;5021453;28;20479;-75
2022/11/27 04:21:05;;;;;;;34.97;25.17;;;3.30;99.90;;;;;;5004788;28;20151;-75
2022/11/27 04:23:31;;;;;;;44.60;25.95;;;3.30;99.90;;;;;;5008306;28;20041;-77
2022/11/27 04:25:58;;;;;;;43.92;27.20;;;3.40;99.90;;;;;;5009499;28;20044;-74
2022/11/27 04:28:25;;;;;;;41.30;27.33;;;3.30;99.90;;;;;;5007664;28;20407;-76
2022/11/27 04:30:52;;;;;;;40.85;26.77;;;3.30;99.90;;;;;;4998675;28;20520;-75
2022/11/27 04:33:20;;;;;;;43.30;27.58;;;3.30;99.90;;;;;;5004356;28;20056;-75
2022/11/27 04:35:47;;;;;;;40.92;24.63;;;3.30;99.90;;;;;;5002762;28;20073;-75
2022/11/27 04:38:14;;;;;;;38.15;27.05;;;3.30;99.90;;;;;;5004633;28;20088;-76
2022/11/27 04:40:40;;;;;;;43.22;26.48;;;3.20;99.90;;;;;;5015174;28;20507;-75
2022/11/27 04:43:07;;;;;;;39.55;25.02;;;3.30;99.90;;;;;;5000160;28;20062;-75
2022/11/27 04:45:34;;;;;;;47.70;29.05;;;3.30;99.90;;;;;;4994645;28;20049;-77
2022/11/27 04:48:01;;;;;;;37.45;26.17;;;3.20;99.90;;;;;;5026068;28;20049;-75
2022/11/27 04:50:28;;;;;;;42.30;26.80;;;3.20;99.90;;;;;;5016595;28;20038;-76
2022/11/27 04:52:55;;;;;;;38.08;26.08;;;3.20;99.90;;;;;;5003206;28;20042;-76
2022/11/27 04:55:25;;;;;;;46.05;26.25;;;3.20;99.90;;;;;;5022232;28;20042;-77
2022/11/27 04:57:52;;;;;;;36.00;23.95;;;3.10;99.90;;;;;;5007983;28;20042;-75
2022/11/27 05:00:20;;;;;;;39.22;23.63;;;3.10;99.90;;;;;;5002249;28;20045;-77
2022/11/27 05:02:46;;;;;;;41.88;27.00;;;3.20;99.90;;;;;;5000686;28;20133;-76
2022/11/27 05:05:13;;;;;;;37.53;26.73;;;3.20;99.90;;;;;;5003063;28;20104;-75
2022/11/27 05:07:40;;;;;;;42.65;26.80;;;3.20;99.90;;;;;;5008122;28;20072;-75
2022/11/27 05:10:08;;;;;;;47.47;27.35;;;3.20;99.90;;;;;;5009339;28;20045;-76
2022/11/27 05:12:34;;;;;;;38.10;24.90;;;3.20;99.90;;;;;;5005807;28;20041;-77
2022/11/27 05:15:01;;;;;;;41.97;25.75;;;3.20;99.90;;;;;;5004573;28;20042;-77
2022/11/27 05:17:30;;;;;;;41.80;27.52;;;3.20;99.90;;;;;;4999719;28;20038;-75
2022/11/27 05:19:58;;;;;;;40.65;25.77;;;3.20;99.90;;;;;;5014862;28;20136;-76
2022/11/27 05:22:25;;;;;;;42.97;28.02;;;3.20;99.90;;;;;;5003275;28;20045;-76
2022/11/27 05:24:52;;;;;;;41.70;28.42;;;3.20;99.90;;;;;;5032130;28;20405;-77
2022/11/27 05:27:18;;;;;;;42.92;26.35;;;3.20;99.90;;;;;;5008274;28;20059;-76
2022/11/27 05:29:45;;;;;;;49.70;27.90;;;3.20;99.90;;;;;;5024438;28;20049;-75
2022/11/27 05:32:12;;;;;;;46.97;28.88;;;3.20;99.90;;;;;;5007461;28;20041;-77
2022/11/27 05:34:39;;;;;;;47.53;27.58;;;3.20;99.90;;;;;;4998800;28;20436;-75
2022/11/27 05:37:06;;;;;;;49.80;28.63;;;3.20;99.90;;;;;;5011242;28;20052;-75
2022/11/27 05:39:33;;;;;;;47.00;30.30;;;3.20;99.90;;;;;;5016715;28;20388;-76
2022/11/27 05:41:59;;;;;;;53.35;31.15;;;3.20;99.90;;;;;;5008009;28;20097;-75
2022/11/27 05:44:26;;;;;;;42.72;28.77;;;3.20;99.90;;;;;;4993978;28;20060;-76
2022/11/27 05:46:53;;;;;;;50.20;29.23;;;3.20;99.90;;;;;;5023275;28;20063;-76
2022/11/27 05:49:19;;;;;;;42.85;29.58;;;3.20;99.90;;;;;;5005058;28;20412;-76
2022/11/27 05:51:46;;;;;;;59.03;29.92;;;3.20;99.90;;;;;;5021545;28;20041;-76
2022/11/27 05:54:18;;;;;;;50.40;30.08;;;3.20;99.90;;;;;;5008222;28;20152;-76
2022/11/27 05:56:44;;;;;;;52.47;32.53;;;3.20;99.90;;;;;;4996673;28;20302;-75
2022/11/27 05:59:11;;;;;;;53.55;30.67;;;3.20;99.90;;;;;;5009113;28;20403;-77
2022/11/27 06:01:38;;;;;;;52.40;30.33;;;3.20;99.90;;;;;;5009715;28;20038;-75
2022/11/27 06:04:05;;;;;;;63.45;32.13;;;3.10;99.90;;;;;;5029612;28;20137;-75
2022/11/27 06:06:32;;;;;;;56.47;29.77;;;3.10;99.90;;;;;;5006365;28;20064;-77
2022/11/27 06:08:59;;;;;;;55.75;29.70;;;3.10;99.90;;;;;;5011618;28;20521;-75
2022/11/27 06:11:26;;;;;;;49.60;30.60;;;3.10;99.90;;;;;;4992414;28;20038;-76
2022/11/27 06:13:52;;;;;;;62.80;31.60;;;3.20;99.90;;;;;;5007857;28;20466;-76
2022/11/27 06:16:22;;;;;;;57.80;32.65;;;3.10;99.90;;;;;;5011808;28;20041;-77
2022/11/27 06:18:51;;;;;;;58.33;33.10;;;3.10;99.90;;;;;;4995588;28;20084;-77
2022/11/27 06:21:19;;;;;;;57.03;32.15;;;3.20;99.90;;;;;;5006769;28;20041;-76
2022/11/27 06:23:46;;;;;;;62.28;33.17;;;3.10;99.90;;;;;;5021884;28;20113;-76
2022/11/27 06:26:16;;;;;;;56.72;32.22;;;3.10;99.90;;;;;;5009152;28;20388;-75
2022/11/27 06:28:45;;;;;;;51.85;31.50;;;3.00;99.90;;;;;;5028821;28;20148;-78
2022/11/27 06:31:15;;;;;;;57.92;32.63;;;3.10;99.90;;;;;;5020923;28;20113;-78
2022/11/27 06:33:45;;;;;;;55.10;31.65;;;3.00;99.90;;;;;;5005950;28;20118;-76
2022/11/27 06:36:12;;;;;;;57.95;32.28;;;3.00;99.90;;;;;;5031188;28;20269;-78
2022/11/27 06:38:39;;;;;;;59.03;30.90;;;3.00;99.90;;;;;;5005113;28;20046;-77
2022/11/27 06:41:17;;;;;;;62.65;30.75;;;3.00;99.90;;;;;;5021656;28;20045;-76
2022/11/27 06:43:44;;;;;;;58.10;31.75;;;3.10;99.90;;;;;;5023134;28;20152;-78
2022/11/27 06:46:16;;;;;;;60.85;31.67;;;3.00;99.90;;;;;;5016759;28;20041;-75
2022/11/27 06:48:45;;;;;;;54.45;31.40;;;3.00;99.90;;;;;;5021108;28;20095;-76
2022/11/27 06:51:15;;;;;;;56.70;34.78;;;3.00;99.90;;;;;;5033934;28;20045;-77
2022/11/27 06:53:42;;;;;;;50.50;31.27;;;3.00;99.90;;;;;;5003178;28;20053;-77
2022/11/27 06:56:15;;;;;;;49.55;29.83;;;3.00;99.90;;;;;;5032937;28;20037;-81
2022/11/27 06:58:42;;;;;;;53.33;32.20;;;3.00;99.90;;;;;;5032694;28;20128;-80
2022/11/27 07:01:13;;;;;;;51.03;30.38;;;3.00;99.90;;;;;;5037674;28;20040;-79
2022/11/27 07:03:40;;;;;;;53.83;31.33;;;3.00;99.90;;;;;;5030825;28;20057;-80
2022/11/27 07:06:09;;;;;;;51.83;30.92;;;3.00;99.90;;;;;;5024502;28;20050;-78
2022/11/27 07:08:36;;;;;;;51.15;30.17;;;3.00;99.90;;;;;;4998749;28;20568;-78
2022/11/27 07:11:34;;;;;;;54.72;33.45;;;2.90;99.90;;;;;;5007992;28;20041;-79
2022/11/27 07:14:03;;;;;;;57.45;31.30;;;3.00;99.90;;;;;;5024572;28;20119;-78
2022/11/27 07:16:33;;;;;;;48.55;30.58;;;3.00;99.90;;;;;;5003961;28;20044;-79
2022/11/27 07:19:04;;;;;;;45.45;30.33;;;3.00;99.90;;;;;;5008471;28;20065;-76
2022/11/27 07:21:32;;;;;;;87.70;31.33;;;2.90;99.90;;;;;;5008064;28;20046;-77
2022/11/27 07:24:00;;;;;;;46.97;28.83;;;3.00;99.90;;;;;;5022942;28;20132;-76
2022/11/27 07:26:29;;;;;;;51.35;29.13;;;2.90;99.90;;;;;;5004720;28;20049;-78
2022/11/27 07:28:56;;;;;;;42.42;25.95;;;3.00;99.90;;;;;;4988967;28;20140;-79
2022/11/27 07:31:26;;;;;;;45.50;27.40;;;3.00;99.90;;;;;;5019448;28;20499;-78
2022/11/27 07:33:53;;;;;;;39.45;24.80;;;3.10;99.90;;;;;;4999581;28;20050;-77
2022/11/27 07:36:27;;;;;;;45.58;30.15;;;3.10;99.90;;;;;;4986118;28;20067;-76
2022/11/27 07:38:54;;;;;;;39.05;26.17;;;3.10;99.90;;;;;;4999651;28;20052;-76
2022/11/27 07:41:21;;;;;;;42.72;29.40;;;3.10;99.90;;;;;;5004197;28;20053;-76
2022/11/27 07:43:48;;;;;;;32.50;24.50;;;3.10;99.90;;;;;;5023713;28;20072;-78
2022/11/27 07:46:20;;;;;;;35.50;25.10;;;3.20;99.90;;;;;;5005586;28;20057;-81
2022/11/27 07:48:47;;;;;;;35.55;25.75;;;3.30;99.90;;;;;;5014117;28;20053;-77
2022/11/27 07:51:16;;;;;;;32.78;24.70;;;3.30;99.90;;;;;;5013648;28;20049;-79
2022/11/27 07:53:44;;;;;;;35.45;24.98;;;3.30;99.90;;;;;;5005307;28;20049;-77
2022/11/27 07:56:13;;;;;;;34.25;24.52;;;3.40;99.90;;;;;;5015041;28;20046;-77
2022/11/27 07:58:40;;;;;;;33.40;23.40;;;3.40;99.90;;;;;;5006757;28;20104;-80
2022/11/27 08:01:12;;;;;;;34.60;24.48;;;3.50;99.90;;;;;;5004820;28;20049;-77
2022/11/27 08:03:42;;;;;;;33.50;22.70;;;3.50;99.90;;;;;;5009633;28;20100;-76
2022/11/27 08:06:15;;;;;;;35.80;22.27;;;3.50;99.90;;;;;;5013542;28;20049;-78
2022/11/27 08:08:42;;;;;;;31.40;22.90;;;3.60;99.90;;;;;;5015419;28;20094;-77
2022/11/27 08:11:31;;;;;;;32.95;22.80;;;3.60;99.90;;;;;;5026633;28;20080;-79
2022/11/27 08:14:03;;;;;;;33.53;23.85;;;3.70;99.90;;;;;;5003566;28;20241;-79
2022/11/27 08:16:31;;;;;;;35.38;25.10;;;3.70;99.90;;;;;;5012590;28;20045;-77
2022/11/27 08:18:58;;;;;;;33.10;25.67;;;3.70;99.90;;;;;;4994485;28;20057;-77
2022/11/27 08:21:26;;;;;;;30.40;21.58;;;3.70;99.90;;;;;;5007962;28;20088;-78
2022/11/27 08:23:54;;;;;;;40.33;27.35;;;3.80;99.90;;;;;;5014322;28;20047;-78
2022/11/27 08:26:21;;;;;;;31.05;24.23;;;3.90;99.90;;;;;;5009565;28;20052;-77
2022/11/27 08:28:51;;;;;;;34.40;23.92;;;3.90;99.90;;;;;;5009860;28;20532;-76
2022/11/27 08:31:19;;;;;;;39.67;27.35;;;4.00;99.90;;;;;;5008409;28;20056;-79
2022/11/27 08:33:46;;;;;;;36.63;27.02;;;4.00;99.90;;;;;;5014574;28;20056;-76
2022/11/27 08:36:13;;;;;;;31.35;25.35;;;4.20;99.90;;;;;;4996118;28;20390;-81
2022/11/27 08:38:45;;;;;;;33.72;24.05;;;4.20;99.90;;;;;;5024260;28;20053;-78
2022/11/27 08:41:11;;;;;;;30.13;26.35;;;4.40;99.90;;;;;;5030975;28;20049;-78
2022/11/27 08:43:41;;;;;;;42.97;27.33;;;4.40;99.90;;;;;;5004616;28;20048;-77
2022/11/27 08:46:08;;;;;;;32.08;27.77;;;4.60;99.90;;;;;;5031467;23;20052;-72
2022/11/27 08:48:35;;;;;;;39.28;29.00;;;4.70;99.90;;;;;;4966122;28;20126;-73
2022/11/27 08:51:10;;;;;;;34.88;28.23;;;4.90;99.90;;;;;;4976510;28;20045;-73
2022/11/27 08:53:37;;;;;;;;;;;5.00;99.90;;;;;;4979802;28;20052;-73
2022/11/27 08:56:15;;;;;;;35.90;32.22;;;5.10;99.90;;;;;;4976738;28;19937;-73
2022/11/27 08:58:43;;;;;;;32.50;28.45;;;5.20;99.90;;;;;;5017755;28;20101;-73
2022/11/27 09:01:16;;;;;;;31.60;28.75;;;5.20;99.90;;;;;;4996737;28;20054;-75
2022/11/27 09:03:43;;;;;;;33.53;30.08;;;5.30;99.90;;;;;;5007128;28;20104;-73
2022/11/27 09:06:14;;;;;;;34.55;31.20;;;5.40;99.90;;;;;;5009647;28;20053;-73
2022/11/27 09:08:42;;;;;;;35.55;32.13;;;5.40;99.90;;;;;;4986722;28;20523;-72
2022/11/27 09:11:11;;;;;;;37.15;33.25;;;5.50;99.90;;;;;;4988981;28;20054;-72
2022/11/27 09:13:39;;;;;;;38.90;34.63;;;5.50;99.90;;;;;;4983245;28;20446;-72
2022/11/27 09:16:09;;;;;;;37.22;33.80;;;5.50;99.90;;;;;;4977142;28;20045;-73
2022/11/27 09:18:36;;;;;;;34.85;31.35;;;5.40;99.90;;;;;;4964615;28;20046;-72
2022/11/27 09:21:09;;;;;;;36.28;32.80;;;5.50;99.90;;;;;;4989277;28;20060;-72
2022/11/27 09:23:37;;;;;;;36.83;32.97;;;5.50;99.90;;;;;;4961857;28;20100;-72
2022/11/27 09:26:07;;;;;;;36.35;32.65;;;5.60;99.90;;;;;;4972737;28;20072;-72
2022/11/27 09:28:35;;;;;;;34.50;31.50;;;5.70;99.90;;;;;;4965499;28;20061;-72
2022/11/27 09:31:04;;;;;;;35.78;32.17;;;5.80;99.90;;;;;;4966976;28;20056;-72
2022/11/27 09:33:32;;;;;;;36.10;31.40;;;5.80;99.90;;;;;;4985387;28;20336;-72
2022/11/27 09:36:20;;;;;;;35.17;31.45;;;5.90;99.90;;;;;;4968519;28;20140;-72
2022/11/27 09:38:47;;;;;;;34.05;30.60;;;5.90;99.90;;;;;;4990328;28;20049;-74
2022/11/27 09:41:40;;;;;;;32.47;29.08;;;5.90;99.90;;;;;;4970645;28;20490;-71
2022/11/27 09:44:48;;;;;;;33.17;29.33;;;5.90;99.90;;;;;;4983414;28;20173;-72
2022/11/27 09:47:48;;;;;;;36.15;30.77;;;5.90;99.90;;;;;;4956900;28;20168;-72
2022/11/27 09:50:28;;;;;;;29.00;26.35;;;5.90;99.90;;;;;;4988960;28;20050;-76
2022/11/27 09:52:56;;;;;;;31.63;28.67;;;5.90;99.90;;;;;;4981518;28;20501;-73
2022/11/27 09:55:51;;;;;;;32.53;28.83;;;5.90;99.90;;;;;;4963555;28;20036;-75
2022/11/27 09:58:26;;;;;;;29.75;26.88;;;5.90;99.90;;;;;;4962606;28;20056;-74
2022/11/27 10:00:53;;;;;;;31.83;28.88;;;6.00;99.90;;;;;;4989050;28;20052;-73
2022/11/27 10:03:24;;;;;;;34.28;30.45;;;6.00;99.90;;;;;;4978324;28;20757;-76
2022/11/27 10:06:20;;;;;;;32.72;29.98;;;6.10;99.90;;;;;;4985209;28;20046;-75
2022/11/27 10:09:05;;;;;;;35.53;32.08;;;6.10;99.90;;;;;;4965023;28;20120;-75
2022/11/27 10:12:00;;;;;;;34.25;30.55;;;6.20;99.90;;;;;;4977882;28;20511;-75
2022/11/27 10:14:54;;;;;;;33.15;30.00;;;6.20;99.90;;;;;;4962172;28;20077;-72
2022/11/27 10:17:43;;;;;;;59.53;46.33;;;6.40;99.90;;;;;;4965018;28;20042;-76
2022/11/27 10:20:16;;;;;;;33.72;31.05;;;6.40;99.90;;;;;;4967399;28;20053;-71
2022/11/27 10:23:06;;;;;;;35.13;32.17;;;6.40;99.90;;;;;;4960145;28;20053;-75
2022/11/27 10:25:47;;;;;;;34.40;31.58;;;6.50;99.90;;;;;;4962459;28;20050;-74
2022/11/27 10:28:20;;;;;;;40.38;37.17;;;6.70;99.90;;;;;;4970761;28;20074;-75
2022/11/27 10:31:13;;;;;;;36.95;33.83;;;6.70;99.90;;;;;;4981542;28;20057;-73
2022/11/27 10:33:52;;;;;;;36.88;34.00;;;6.70;99.90;;;;;;4983163;28;20114;-74
2022/11/27 10:36:46;;;;;;;36.13;33.38;;;6.90;99.90;;;;;;4982480;28;20048;-75
2022/11/27 10:39:55;;;;;;;38.95;35.35;;;6.80;99.90;;;;;;4985383;28;20222;-75
2022/11/27 10:42:32;;;;;;;38.45;35.03;;;6.90;99.90;;;;;;4906840;29;20056;-74
2022/11/27 10:45:06;;;;;;;36.63;33.42;;;7.00;99.90;;;;;;4930981;28;20051;-73
2022/11/27 10:47:34;;;;;;;36.08;33.22;;;7.00;99.90;;;;;;4953799;28;21965;-74
2022/11/27 10:50:01;;;;;;;34.97;32.05;;;7.00;99.90;;;;;;4964213;28;20049;-74
2022/11/27 10:52:28;;;;;;;37.28;33.75;;;7.10;99.90;;;;;;4974829;28;20045;-74
2022/11/27 10:54:59;;;;;;;37.63;34.47;;;7.10;99.90;;;;;;4963929;28;20049;-74
2022/11/27 10:57:50;;;;;;;36.80;33.83;;;7.20;99.90;;;;;;4978683;28;20128;-74
2022/11/27 11:00:22;;;;;;;42.10;38.45;;;7.20;99.90;;;;;;4965610;28;20521;-74
2022/11/27 11:03:14;;;;;;;34.08;31.48;;;7.30;99.90;;;;;;4979031;28;20136;-72
2022/11/27 11:05:41;;;;;;;34.47;31.52;;;7.30;99.90;;;;;;4964334;28;20052;-74
2022/11/27 11:08:28;;;;;;;39.40;36.17;;;7.30;99.90;;;;;;4981565;28;20054;-77
2022/11/27 11:11:02;;;;;;;36.70;33.55;;;7.40;99.90;;;;;;4979231;28;20045;-73
2022/11/27 11:13:39;;;;;;;51.67;46.42;;;7.40;99.90;;;;;;4960757;28;20156;-73
2022/11/27 11:16:29;;;;;;;33.13;30.55;;;7.40;99.90;;;;;;4968164;28;20052;-75
2022/11/27 11:19:01;;;;;;;35.28;32.70;;;7.40;99.90;;;;;;4981160;28;20553;-75
2022/11/27 11:21:32;;;;;;;32.20;29.95;;;7.40;99.90;;;;;;4979387;28;20152;-74
2022/11/27 11:24:13;;;;;;;30.25;27.83;;;7.40;99.90;;;;;;4991315;28;20049;-76
2022/11/27 11:26:46;;;;;;;30.75;28.33;;;7.50;99.90;;;;;;4973691;28;20038;-74
2022/11/27 11:29:29;;;;;;;32.40;30.02;;;7.50;99.90;;;;;;4986910;28;20046;-74
2022/11/27 11:32:00;;;;;;;28.85;26.80;;;7.50;99.90;;;;;;4999094;28;20045;-75
2022/11/27 11:34:29;;;;;;;31.30;28.85;;;7.50;99.90;;;;;;4983121;28;20066;-73
2022/11/27 11:37:06;;;;;;;31.70;29.33;;;7.60;99.90;;;;;;4966401;28;20041;-75
2022/11/27 11:39:42;;;;;;;30.98;29.02;;;7.60;99.90;;;;;;4983746;28;20057;-75
2022/11/27 11:42:17;;;;;;;28.88;26.92;;;7.60;99.90;;;;;;4992414;28;20070;-73
2022/11/27 11:44:53;;;;;;;27.30;25.35;;;7.60;99.90;;;;;;4990890;28;20048;-72
2022/11/27 11:47:23;;;;;;;29.05;27.05;;;7.70;99.90;;;;;;4969170;28;20638;-72
2022/11/27 11:49:52;;;;;;;29.10;27.02;;;7.80;99.90;;;;;;4985788;28;20681;-73
2022/11/27 11:52:42;;;;;;;29.95;27.80;;;7.80;99.90;;;;;;4984143;28;20145;-74
2022/11/27 11:55:26;;;;;;;29.48;27.17;;;7.80;99.90;;;;;;5002402;28;20081;-75
2022/11/27 11:58:33;;;;;;;29.15;27.05;;;7.80;99.90;;;;;;4969350;28;20049;-73
2022/11/27 12:01:24;;;;;;;30.88;28.52;;;7.90;99.90;;;;;;4930670;28;20509;-74
2022/11/27 12:04:18;;;;;;;30.52;27.77;;;7.80;99.90;;;;;;4972032;28;20062;-75
2022/11/27 12:07:03;;;;;;;31.55;29.30;;;7.80;99.90;;;;;;4984851;28;20037;-75
2022/11/27 12:09:51;;;;;;;33.85;31.10;;;7.90;99.90;;;;;;4953640;28;20061;-75
2022/11/27 12:12:17;;;;;;;31.77;29.17;;;7.90;99.90;;;;;;4999751;28;20069;-75
2022/11/27 12:14:48;;;;;;;30.08;28.08;;;7.80;99.90;;;;;;4968867;28;20049;-73
2022/11/27 12:17:31;;;;;;;30.88;28.38;;;7.80;99.90;;;;;;4983803;28;20060;-74
2022/11/27 12:20:23;;;;;;;31.23;28.73;;;7.90;99.90;;;;;;4981611;28;20045;-76
2022/11/27 12:22:59;;;;;;;31.27;28.88;;;7.90;99.90;;;;;;4985456;28;20075;-75
2022/11/27 12:25:52;;;;;;;31.55;28.70;;;8.00;99.90;;;;;;4971592;28;20046;-75
2022/11/27 12:28:19;;;;;;;30.08;28.15;;;8.10;99.90;;;;;;4969539;28;20054;-74
2022/11/27 12:30:55;;;;;;;30.67;28.25;;;8.10;99.90;;;;;;4973655;28;20045;-75
2022/11/27 12:33:34;;;;;;;29.10;26.98;;;8.10;99.90;;;;;;4993193;28;20053;-74
2022/11/27 12:36:32;;;;;;;29.13;26.80;;;8.10;99.90;;;;;;4974574;28;20049;-73
2022/11/27 12:39:52;;;;;;;29.40;27.25;;;8.00;99.90;;;;;;4969076;28;20050;-73
2022/11/27 12:42:38;;;;;;;28.15;26.15;;;8.10;99.90;;;;;;4918107;28;20058;-74
2022/11/27 12:45:16;;;;;;;29.10;26.60;;;7.90;99.90;;;;;;4967870;28;20077;-74
2022/11/27 12:47:51;;;;;;;29.27;26.90;;;7.90;99.90;;;;;;4986754;28;20137;-73
2022/11/27 12:50:41;;;;;;;26.63;24.77;;;7.90;99.90;;;;;;4985549;28;20046;-74
2022/11/27 12:53:15;;;;;;;26.35;24.58;;;7.90;99.90;;;;;;4970264;28;20114;-73
2022/11/27 12:56:15;;;;;;;27.10;25.20;;;7.90;99.90;;;;;;4987998;28;20038;-74
2022/11/27 12:58:47;;;;;;;27.73;25.75;;;7.80;99.90;;;;;;4967526;28;20042;-75
2022/11/27 13:01:27;;;;;;;26.42;24.13;;;7.90;99.90;;;;;;4985221;28;20065;-74
2022/11/27 13:04:22;;;;;;;26.92;25.13;;;7.90;99.90;;;;;;4990393;28;20050;-75
2022/11/27 13:06:58;;;;;;;26.85;25.35;;;7.90;99.90;;;;;;4989530;28;20362;-75
2022/11/27 13:09:57;;;;;;;28.58;26.50;;;7.90;99.90;;;;;;4990305;28;20050;-74